Time;durP1;ratioP1;P1;durP2;ratioP2;P2;SDS_P1;SDS_P2;PMS_P1;PMS_P2;Temp;Humidity;BMP_temperature;BMP_pressure;BME280_temperature;BME280_humidity;BME280_pressure;Samples;Min_cycle;Max_cycle;Signal;HPM_P1;HPM_P2
2023/04/07 00:00:09;;;;;;;7.38;3.80;;;9.10;99.90;;;;;;4992908;28;20099;-84
2023/04/07 00:02:35;;;;;;;6.90;4.05;;;9.10;99.90;;;;;;4992235;28;20030;-83
2023/04/07 00:05:01;;;;;;;5.80;3.67;;;9.10;99.90;;;;;;4993806;28;20559;-84
2023/04/07 00:07:27;;;;;;;5.65;3.85;;;9.10;99.90;;;;;;4993243;28;20109;-84
2023/04/07 00:09:53;;;;;;;5.68;3.58;;;9.10;99.90;;;;;;4992533;28;20307;-84
2023/04/07 00:12:18;;;;;;;5.13;3.50;;;9.20;99.90;;;;;;4977118;28;20116;-85
2023/04/07 00:14:44;;;;;;;7.10;3.50;;;9.10;99.90;;;;;;5009148;28;20041;-86
2023/04/07 00:17:10;;;;;;;4.43;3.45;;;9.10;99.90;;;;;;4994404;28;20514;-85
2023/04/07 00:19:37;;;;;;;6.43;3.70;;;9.10;99.90;;;;;;4992591;28;20125;-84
2023/04/07 00:22:02;;;;;;;6.93;3.63;;;9.10;99.90;;;;;;4977020;28;20124;-85
2023/04/07 00:24:28;;;;;;;9.65;4.35;;;9.20;99.90;;;;;;4992491;28;20502;-85
2023/04/07 00:26:55;;;;;;;16.80;7.13;;;9.20;99.90;;;;;;4992542;28;20781;-84
2023/04/07 00:29:21;;;;;;;13.73;6.93;;;9.20;99.90;;;;;;4993042;28;20026;-85
2023/04/07 00:31:46;;;;;;;10.82;5.70;;;9.20;99.90;;;;;;4995876;28;20084;-83
2023/04/07 00:34:12;;;;;;;8.50;5.35;;;9.20;99.90;;;;;;4997494;28;20030;-85
2023/04/07 00:36:38;;;;;;;8.43;4.97;;;9.20;99.90;;;;;;4996910;28;20023;-84
2023/04/07 00:39:03;;;;;;;8.43;5.20;;;9.30;99.90;;;;;;5012927;28;20448;-85
2023/04/07 00:41:29;;;;;;;10.32;5.85;;;9.30;99.90;;;;;;4995935;28;20034;-85
2023/04/07 00:43:54;;;;;;;7.90;4.85;;;9.30;99.90;;;;;;4996704;28;20046;-85
2023/04/07 00:46:23;;;;;;;8.73;5.00;;;9.20;99.90;;;;;;4996022;28;20081;-85
2023/04/07 00:48:48;;;;;;;7.35;4.63;;;9.20;99.90;;;;;;4995477;28;20073;-85
2023/04/07 00:51:15;;;;;;;7.97;4.63;;;9.20;99.90;;;;;;5012175;28;20439;-85
2023/04/07 00:53:41;;;;;;;7.07;4.25;;;9.20;99.90;;;;;;4995273;28;20125;-84
2023/04/07 00:56:07;;;;;;;7.45;4.07;;;9.20;99.90;;;;;;4995865;28;20165;-84
2023/04/07 00:58:34;;;;;;;6.88;3.90;;;9.20;99.90;;;;;;4996443;28;20077;-84
2023/04/07 01:01:16;;;;;;;6.15;3.53;;;9.10;99.90;;;;;;4995527;28;20480;-85
2023/04/07 01:04:27;;;;;;;5.28;3.95;;;9.10;99.90;;;;;;4995457;28;20038;-84
2023/04/07 01:06:58;;;;;;;5.53;3.90;;;9.10;99.90;;;;;;4996375;28;20026;-84
2023/04/07 01:09:33;;;;;;;5.20;3.80;;;9.10;99.90;;;;;;4995265;28;20038;-85
2023/04/07 01:12:08;;;;;;;6.30;3.53;;;9.10;99.90;;;;;;4994954;28;20116;-84
2023/04/07 01:14:41;;;;;;;4.43;3.30;;;9.10;99.90;;;;;;4995764;28;20030;-85
2023/04/07 01:17:10;;;;;;;5.32;3.05;;;9.10;99.90;;;;;;5011937;28;20474;-85
2023/04/07 01:19:58;;;;;;;4.90;3.35;;;9.10;99.90;;;;;;4995387;28;20034;-85
2023/04/07 01:22:32;;;;;;;6.93;3.72;;;9.20;99.90;;;;;;4996834;28;20042;-85
2023/04/07 01:25:03;;;;;;;7.85;3.42;;;9.20;99.90;;;;;;4994961;28;20118;-85
2023/04/07 01:27:50;;;;;;;4.78;3.25;;;9.20;99.90;;;;;;4995471;28;20026;-85
2023/04/07 01:30:17;;;;;;;7.13;3.55;;;9.10;99.90;;;;;;4995451;28;20034;-85
2023/04/07 01:32:46;;;;;;;5.13;3.42;;;9.10;99.90;;;;;;4994755;28;20042;-84
2023/04/07 01:35:13;;;;;;;5.47;3.63;;;9.10;99.90;;;;;;4995539;28;20030;-84
2023/04/07 01:37:39;;;;;;;4.93;3.38;;;9.10;99.90;;;;;;4994509;28;20069;-80
2023/04/07 01:40:07;;;;;;;5.07;3.40;;;9.10;99.90;;;;;;4996180;28;20034;-84
2023/04/07 01:42:35;;;;;;;5.35;3.75;;;9.10;99.90;;;;;;4993872;28;20054;-85
2023/04/07 01:45:03;;;;;;;4.82;3.20;;;9.10;99.90;;;;;;4994876;28;20056;-85
2023/04/07 01:47:29;;;;;;;4.53;3.20;;;9.20;99.90;;;;;;4995433;28;20081;-84
2023/04/07 01:49:57;;;;;;;7.10;3.47;;;9.20;99.90;;;;;;4995754;28;20026;-84
2023/04/07 01:52:25;;;;;;;5.25;3.38;;;9.20;99.90;;;;;;4995047;28;20034;-84
2023/04/07 01:54:53;;;;;;;6.80;3.75;;;9.20;99.90;;;;;;4994390;28;20038;-84
2023/04/07 01:57:18;;;;;;;6.22;4.00;;;9.20;99.90;;;;;;4994848;28;20468;-85
2023/04/07 01:59:44;;;;;;;6.72;3.72;;;9.20;99.90;;;;;;4994257;28;20037;-85
2023/04/07 02:02:10;;;;;;;5.97;3.65;;;9.20;99.90;;;;;;4994954;28;20036;-84
2023/04/07 02:05:02;;;;;;;4.45;3.25;;;9.20;99.90;;;;;;4994831;28;20364;-84
2023/04/07 02:07:51;;;;;;;4.70;3.00;;;9.10;99.90;;;;;;4995992;28;20497;-83
2023/04/07 02:10:21;;;;;;;4.53;3.20;;;9.10;99.90;;;;;;4995688;28;20022;-84
2023/04/07 02:12:47;;;;;;;6.15;3.10;;;9.10;99.90;;;;;;4993937;28;20129;-84
2023/04/07 02:15:15;;;;;;;5.25;3.10;;;9.20;99.90;;;;;;4994836;28;20191;-83
2023/04/07 02:17:43;;;;;;;4.00;2.95;;;9.20;99.90;;;;;;4994613;28;20052;-84
2023/04/07 02:20:11;;;;;;;4.47;3.08;;;9.10;99.90;;;;;;4994601;28;20026;-85
2023/04/07 02:22:38;;;;;;;5.38;3.10;;;9.20;99.90;;;;;;4994303;28;20491;-84
2023/04/07 02:25:27;;;;;;;4.78;3.38;;;9.20;99.90;;;;;;4994827;28;20026;-84
2023/04/07 02:27:53;;;;;;;6.18;3.10;;;9.20;99.90;;;;;;4994522;28;20022;-84
2023/04/07 02:30:19;;;;;;;7.90;3.30;;;9.10;99.90;;;;;;4995012;28;20440;-84
2023/04/07 02:32:45;;;;;;;5.80;3.20;;;9.20;99.90;;;;;;4993779;28;20133;-84
2023/04/07 02:35:11;;;;;;;3.80;2.90;;;9.10;99.90;;;;;;4996041;28;20030;-85
2023/04/07 02:37:38;;;;;;;6.90;3.47;;;9.10;99.90;;;;;;4997836;28;20034;-84
2023/04/07 02:40:04;;;;;;;4.88;3.17;;;9.20;99.90;;;;;;4994963;28;20034;-85
2023/04/07 02:42:30;;;;;;;6.70;3.67;;;9.10;99.90;;;;;;4995231;28;20133;-84
2023/04/07 02:44:56;;;;;;;4.72;3.40;;;9.10;99.90;;;;;;4994493;28;20082;-83
2023/04/07 02:47:21;;;;;;;4.30;3.60;;;9.20;99.90;;;;;;4994991;28;20053;-84
2023/04/07 02:49:47;;;;;;;5.20;3.30;;;9.10;99.90;;;;;;5009785;28;20057;-83
2023/04/07 02:52:13;;;;;;;4.70;3.30;;;9.10;99.90;;;;;;4993742;28;20065;-88
2023/04/07 02:54:38;;;;;;;5.80;3.60;;;9.10;99.90;;;;;;5010618;28;20030;-88
2023/04/07 02:57:04;;;;;;;4.70;3.50;;;9.00;99.90;;;;;;4994369;28;20426;-88
2023/04/07 02:59:29;;;;;;;5.53;3.45;;;8.90;99.90;;;;;;4993873;28;20034;-88
2023/04/07 03:01:55;;;;;;;4.22;3.10;;;9.00;99.90;;;;;;4993509;28;20057;-88
2023/04/07 03:04:21;;;;;;;7.95;3.78;;;9.00;99.90;;;;;;4994842;28;20030;-86
2023/04/07 03:06:47;;;;;;;5.65;3.30;;;9.00;99.90;;;;;;4994073;28;20105;-83
2023/04/07 03:09:13;;;;;;;7.68;4.70;;;8.90;99.90;;;;;;4994601;28;20124;-83
2023/04/07 03:11:40;;;;;;;12.63;7.28;;;8.80;99.90;;;;;;4994474;28;20035;-83
2023/04/07 03:14:06;;;;;;;21.15;12.38;;;8.80;99.90;;;;;;4993533;28;20034;-83
2023/04/07 03:16:31;;;;;;;13.18;6.63;;;8.80;99.90;;;;;;4993540;28;20023;-83
2023/04/07 03:18:57;;;;;;;7.13;4.50;;;8.80;99.90;;;;;;4992939;28;20022;-83
2023/04/07 03:21:22;;;;;;;8.00;4.78;;;8.80;99.90;;;;;;4994492;28;20105;-83
2023/04/07 03:23:48;;;;;;;7.53;4.20;;;8.60;99.90;;;;;;4997737;28;20027;-82
2023/04/07 03:26:14;;;;;;;7.30;4.25;;;8.60;99.90;;;;;;5006058;28;20532;-83
2023/04/07 03:28:39;;;;;;;5.90;3.92;;;8.60;99.90;;;;;;5007626;28;20030;-83
2023/04/07 03:31:05;;;;;;;5.07;3.97;;;8.70;99.90;;;;;;4996823;28;20378;-83
2023/04/07 03:33:31;;;;;;;6.80;4.18;;;8.70;99.90;;;;;;4993575;28;20121;-83
2023/04/07 03:35:56;;;;;;;7.20;4.20;;;8.70;99.90;;;;;;4993033;28;20034;-83
2023/04/07 03:38:22;;;;;;;7.13;4.70;;;8.70;99.90;;;;;;4993486;28;20542;-84
2023/04/07 03:40:47;;;;;;;7.20;4.60;;;8.70;99.90;;;;;;4992723;28;20040;-83
2023/04/07 03:43:14;;;;;;;8.73;4.43;;;8.80;99.90;;;;;;4994330;28;20054;-83
2023/04/07 03:45:40;;;;;;;8.38;4.63;;;8.70;99.90;;;;;;4994245;28;20121;-83
2023/04/07 03:48:10;;;;;;;6.85;4.22;;;8.70;99.90;;;;;;4993907;28;20546;-83
2023/04/07 03:50:38;;;;;;;6.82;4.25;;;8.70;99.90;;;;;;4994325;28;20121;-84
2023/04/07 03:53:03;;;;;;;6.53;4.32;;;8.70;99.90;;;;;;4992589;28;20038;-83
2023/04/07 03:55:29;;;;;;;7.07;4.68;;;8.70;99.90;;;;;;4993280;28;20034;-83
2023/04/07 03:57:55;;;;;;;7.57;4.10;;;8.70;99.90;;;;;;4992869;28;20022;-83
2023/04/07 04:00:20;;;;;;;5.72;4.20;;;8.70;99.90;;;;;;4994398;28;20102;-83
2023/04/07 04:02:46;;;;;;;8.38;4.25;;;8.80;99.90;;;;;;4993261;28;20034;-84
2023/04/07 04:05:12;;;;;;;6.28;4.18;;;8.80;99.90;;;;;;4994059;28;20033;-83
2023/04/07 04:07:37;;;;;;;6.85;4.55;;;8.70;99.90;;;;;;4997945;28;20023;-84
2023/04/07 04:10:03;;;;;;;7.90;4.43;;;8.80;99.90;;;;;;4997317;28;20109;-84
2023/04/07 04:12:29;;;;;;;6.95;4.40;;;8.80;99.90;;;;;;4996697;28;20121;-84
2023/04/07 04:14:54;;;;;;;6.70;3.92;;;8.80;99.90;;;;;;4997263;28;20069;-84
2023/04/07 04:17:20;;;;;;;6.80;4.35;;;8.80;99.90;;;;;;4997750;28;20026;-84
2023/04/07 04:19:46;;;;;;;5.47;3.97;;;8.80;99.90;;;;;;4997443;28;20092;-84
2023/04/07 04:22:11;;;;;;;6.32;4.40;;;8.80;99.90;;;;;;4997290;28;20030;-84
2023/04/07 04:24:37;;;;;;;7.55;4.35;;;8.70;99.90;;;;;;4996757;28;20356;-84
2023/04/07 04:27:03;;;;;;;6.60;4.32;;;8.70;99.90;;;;;;4997344;28;20090;-84
2023/04/07 04:29:28;;;;;;;6.28;4.00;;;8.70;99.90;;;;;;5012814;28;20053;-84
2023/04/07 04:31:54;;;;;;;6.72;4.25;;;8.70;99.90;;;;;;4995870;28;20038;-84
2023/04/07 04:34:20;;;;;;;7.55;4.18;;;8.70;99.90;;;;;;4996490;28;20034;-84
2023/04/07 04:36:47;;;;;;;6.95;4.50;;;8.70;99.90;;;;;;4997321;28;20038;-85
2023/04/07 04:39:13;;;;;;;5.97;4.03;;;8.70;99.90;;;;;;4995704;28;20026;-83
2023/04/07 04:41:39;;;;;;;7.45;4.28;;;8.70;99.90;;;;;;4995960;28;20069;-85
2023/04/07 04:44:05;;;;;;;5.70;4.10;;;8.80;99.90;;;;;;4995517;28;20472;-85
2023/04/07 04:46:31;;;;;;;5.75;3.60;;;8.70;99.90;;;;;;4996545;28;20460;-85
2023/04/07 04:48:56;;;;;;;8.18;4.65;;;8.70;99.90;;;;;;4995918;28;20073;-83
2023/04/07 04:51:22;;;;;;;5.30;3.72;;;8.70;99.90;;;;;;4997204;28;20061;-84
2023/04/07 04:53:48;;;;;;;8.55;4.70;;;8.70;99.90;;;;;;4996096;28;20026;-84
2023/04/07 04:56:14;;;;;;;8.52;4.50;;;8.70;99.90;;;;;;4995175;28;20034;-84
2023/04/07 04:58:44;;;;;;;7.88;4.40;;;8.70;99.90;;;;;;4995818;28;20062;-83
2023/04/07 05:01:13;;;;;;;9.30;4.80;;;8.70;99.90;;;;;;4995356;28;20026;-84
2023/04/07 05:03:38;;;;;;;8.07;4.22;;;8.70;99.90;;;;;;4995689;28;20027;-83
2023/04/07 05:06:05;;;;;;;7.43;4.65;;;8.70;99.90;;;;;;4996265;28;20080;-84
2023/04/07 05:08:30;;;;;;;7.63;4.53;;;8.70;99.90;;;;;;4996891;28;20097;-84
2023/04/07 05:10:56;;;;;;;7.07;4.38;;;8.70;99.90;;;;;;4996424;28;20061;-83
2023/04/07 05:13:22;;;;;;;6.97;3.92;;;8.70;99.90;;;;;;4995556;28;20094;-83
2023/04/07 05:15:48;;;;;;;6.93;4.70;;;8.80;99.90;;;;;;4995479;28;20035;-84
2023/04/07 05:18:14;;;;;;;6.72;4.20;;;8.80;99.90;;;;;;4996098;28;20065;-84
2023/04/07 05:20:39;;;;;;;6.03;4.38;;;8.80;99.90;;;;;;4995390;28;20491;-84
2023/04/07 05:23:05;;;;;;;8.02;4.35;;;8.80;99.90;;;;;;4995923;28;20037;-83
2023/04/07 05:25:31;;;;;;;6.78;4.40;;;8.80;99.90;;;;;;4996544;28;20026;-84
2023/04/07 05:27:58;;;;;;;7.07;4.20;;;8.80;99.90;;;;;;4994749;28;20113;-83
2023/04/07 05:30:24;;;;;;;7.32;4.75;;;8.80;99.90;;;;;;4995336;28;20052;-84
2023/04/07 05:32:50;;;;;;;10.25;4.50;;;8.80;99.90;;;;;;4996525;28;20539;-84
2023/04/07 05:35:16;;;;;;;5.28;4.10;;;8.80;99.90;;;;;;4994889;28;20541;-84
2023/04/07 05:37:42;;;;;;;8.07;4.72;;;8.90;99.90;;;;;;4995044;28;20026;-84
2023/04/07 05:40:08;;;;;;;7.50;4.38;;;8.90;99.90;;;;;;4994718;28;20034;-84
2023/04/07 05:42:34;;;;;;;7.13;4.40;;;8.90;99.90;;;;;;4994672;28;20513;-84
2023/04/07 05:44:59;;;;;;;5.72;3.78;;;9.00;99.90;;;;;;4995544;28;20105;-85
2023/04/07 05:47:25;;;;;;;6.28;3.50;;;9.00;99.90;;;;;;4995158;28;20088;-85
2023/04/07 05:49:51;;;;;;;4.75;3.40;;;9.00;99.90;;;;;;4995075;28;20197;-85
2023/04/07 05:52:16;;;;;;;6.75;3.88;;;9.00;99.90;;;;;;4995416;28;20031;-85
2023/04/07 05:54:42;;;;;;;6.50;3.50;;;9.00;99.90;;;;;;5010927;28;20038;-85
2023/04/07 05:57:08;;;;;;;5.10;3.63;;;8.90;99.90;;;;;;4995679;28;20052;-85
2023/04/07 05:59:35;;;;;;;6.70;4.07;;;8.90;99.90;;;;;;4994750;28;20035;-85
2023/04/07 06:02:01;;;;;;;4.35;3.60;;;9.00;99.90;;;;;;4994375;28;20030;-85
2023/04/07 06:04:27;;;;;;;5.53;3.40;;;9.00;99.90;;;;;;4994911;28;20117;-85
2023/04/07 06:06:54;;;;;;;6.10;3.15;;;9.10;99.90;;;;;;4994793;28;20109;-86
2023/04/07 06:09:20;;;;;;;7.50;4.00;;;9.10;99.90;;;;;;4994246;28;20026;-85
2023/04/07 06:11:46;;;;;;;5.45;3.60;;;9.20;99.90;;;;;;4994478;28;20034;-85
2023/04/07 06:14:12;;;;;;;6.25;3.70;;;9.20;99.90;;;;;;4994230;28;20081;-85
2023/04/07 06:16:38;;;;;;;5.57;3.72;;;9.20;99.90;;;;;;4994751;28;20037;-85
2023/04/07 06:19:04;;;;;;;5.22;3.58;;;9.30;99.90;;;;;;4994255;28;20467;-83
2023/04/07 06:21:30;;;;;;;7.03;3.65;;;9.30;99.90;;;;;;4994558;28;20104;-83
2023/04/07 06:23:56;;;;;;;7.00;3.70;;;9.30;99.90;;;;;;4994277;28;20406;-80
2023/04/07 06:26:22;;;;;;;7.22;3.85;;;9.30;99.90;;;;;;4995295;28;20093;-85
2023/04/07 06:28:48;;;;;;;5.68;3.55;;;9.40;99.90;;;;;;4994850;28;20027;-85
2023/04/07 06:31:13;;;;;;;5.95;3.53;;;9.40;99.90;;;;;;4993856;28;20037;-85
2023/04/07 06:33:39;;;;;;;5.70;3.63;;;9.40;99.90;;;;;;4994489;28;20026;-84
2023/04/07 06:36:05;;;;;;;5.03;3.80;;;9.50;99.90;;;;;;4994953;28;20031;-85
2023/04/07 06:38:30;;;;;;;6.65;4.00;;;9.50;99.90;;;;;;4994495;28;20029;-86
2023/04/07 06:40:56;;;;;;;5.75;3.90;;;9.50;99.90;;;;;;4994308;28;20121;-86
2023/04/07 06:43:22;;;;;;;7.22;4.43;;;9.60;99.90;;;;;;4993900;28;20057;-86
2023/04/07 06:45:48;;;;;;;7.65;3.88;;;9.60;99.90;;;;;;4995060;28;20026;-86
2023/04/07 06:48:13;;;;;;;7.25;4.30;;;9.60;99.90;;;;;;4993584;28;20022;-84
2023/04/07 06:50:39;;;;;;;6.18;3.90;;;9.60;99.90;;;;;;4993951;28;20109;-85
2023/04/07 06:53:05;;;;;;;6.90;4.20;;;9.50;99.90;;;;;;4994675;28;20034;-85
2023/04/07 06:55:31;;;;;;;8.80;4.15;;;9.40;99.90;;;;;;4994010;28;20026;-84
2023/04/07 06:57:56;;;;;;;8.38;4.35;;;9.40;99.90;;;;;;4993724;28;20085;-84
2023/04/07 07:00:22;;;;;;;8.85;4.00;;;9.40;99.90;;;;;;4993436;28;20472;-84
2023/04/07 07:02:48;;;;;;;6.45;3.70;;;9.40;99.90;;;;;;4995044;28;20038;-84
2023/04/07 07:05:14;;;;;;;6.30;3.80;;;9.50;99.90;;;;;;4994556;28;20018;-86
2023/04/07 07:07:40;;;;;;;7.50;4.68;;;9.60;99.90;;;;;;4994092;28;20033;-86
2023/04/07 07:10:09;;;;;;;6.20;4.40;;;9.60;99.90;;;;;;4994275;28;20030;-86
2023/04/07 07:12:35;;;;;;;5.90;3.90;;;9.70;99.90;;;;;;4993620;28;20039;-86
2023/04/07 07:15:00;;;;;;;8.57;4.47;;;9.80;99.90;;;;;;4993230;28;20395;-86
2023/04/07 07:17:26;;;;;;;6.85;3.95;;;9.80;99.90;;;;;;4993557;28;20035;-86
2023/04/07 07:19:51;;;;;;;6.68;4.13;;;9.90;99.90;;;;;;4993694;28;20026;-86
2023/04/07 07:22:17;;;;;;;9.45;4.35;;;9.90;99.90;;;;;;4994070;28;20030;-86
2023/04/07 07:24:43;;;;;;;6.40;4.15;;;10.00;99.90;;;;;;4993700;28;20361;-85
2023/04/07 07:27:08;;;;;;;6.13;4.13;;;9.90;99.90;;;;;;4994375;28;20033;-86
2023/04/07 07:29:34;;;;;;;7.95;5.03;;;10.00;99.90;;;;;;4994568;28;20031;-86
2023/04/07 07:32:00;;;;;;;7.07;4.53;;;10.00;99.90;;;;;;4986684;28;20066;-85
2023/04/07 07:34:25;;;;;;;6.78;4.43;;;10.00;99.90;;;;;;5000311;28;20031;-88
2023/04/07 07:36:51;;;;;;;7.10;4.90;;;10.00;99.90;;;;;;4998683;28;20050;-89
2023/04/07 07:39:17;;;;;;;9.00;5.15;;;10.00;99.90;;;;;;5002530;28;20101;-88
2023/04/07 07:41:42;;;;;;;7.82;5.15;;;10.00;99.90;;;;;;4986003;28;20121;-84
2023/04/07 07:44:08;;;;;;;7.90;4.82;;;10.00;99.90;;;;;;4987855;28;20030;-84
2023/04/07 07:46:34;;;;;;;5.90;4.32;;;10.00;99.90;;;;;;4987288;28;20022;-86
2023/04/07 07:48:59;;;;;;;5.63;4.28;;;10.00;99.90;;;;;;5003752;28;20364;-84
2023/04/07 07:51:26;;;;;;;6.47;4.20;;;10.00;99.90;;;;;;4987563;28;20023;-85
2023/04/07 07:53:52;;;;;;;6.57;4.25;;;9.90;99.90;;;;;;4993987;28;20077;-84
2023/04/07 07:56:18;;;;;;;6.63;4.18;;;9.90;99.90;;;;;;4982171;28;20030;-85
2023/04/07 07:58:43;;;;;;;13.10;7.97;;;9.90;99.90;;;;;;4988779;28;20027;-85
2023/04/07 08:01:09;;;;;;;6.88;4.65;;;9.90;99.90;;;;;;4985753;28;20023;-84
2023/04/07 08:03:35;;;;;;;6.10;3.97;;;9.80;99.90;;;;;;4986285;28;20034;-84
2023/04/07 08:06:02;;;;;;;7.30;3.75;;;10.00;99.90;;;;;;4984727;28;20023;-86
2023/04/07 08:08:27;;;;;;;4.88;3.65;;;10.00;99.90;;;;;;4978137;28;20031;-82
2023/04/07 08:10:53;;;;;;;6.88;3.78;;;10.00;99.90;;;;;;5002202;28;20035;-84
2023/04/07 08:13:18;;;;;;;12.93;5.97;;;10.00;99.90;;;;;;5002265;28;20053;-86
2023/04/07 08:15:44;;;;;;;7.82;4.55;;;10.00;99.90;;;;;;4981253;28;20031;-85
2023/04/07 08:18:10;;;;;;;7.43;3.40;;;10.00;99.90;;;;;;4976357;28;20031;-85
2023/04/07 08:20:35;;;;;;;6.35;3.80;;;10.10;99.90;;;;;;4995659;28;20034;-87
2023/04/07 08:23:01;;;;;;;5.97;4.00;;;10.20;99.90;;;;;;5012973;28;20052;-84
2023/04/07 08:25:28;;;;;;;4.93;2.97;;;10.30;99.90;;;;;;4997230;28;20026;-86
2023/04/07 08:27:53;;;;;;;7.13;3.40;;;10.40;99.90;;;;;;4997482;28;20175;-87
2023/04/07 08:30:20;;;;;;;7.65;3.33;;;10.50;99.90;;;;;;5008376;28;20030;-85
2023/04/07 08:32:46;;;;;;;6.35;3.33;;;10.50;99.90;;;;;;4997549;28;20026;-87
2023/04/07 08:35:12;;;;;;;7.88;3.30;;;10.70;99.90;;;;;;4997039;28;20080;-84
2023/04/07 08:37:39;;;;;;;5.70;3.47;;;10.90;99.90;;;;;;4996716;28;20031;-85
2023/04/07 08:40:06;;;;;;;7.70;4.78;;;11.00;99.90;;;;;;4996143;28;20037;-84
2023/04/07 08:42:33;;;;;;;7.53;3.75;;;11.00;99.90;;;;;;4991744;28;20415;-83
2023/04/07 08:45:05;;;;;;;4.55;3.25;;;11.00;99.90;;;;;;4995418;28;20517;-84
2023/04/07 08:47:34;;;;;;;6.10;3.47;;;11.10;99.90;;;;;;4995283;28;20026;-83
2023/04/07 08:50:05;;;;;;;3.33;2.67;;;11.20;99.90;;;;;;4995309;28;20491;-91
2023/04/07 08:52:48;;;;;;;6.45;3.20;;;11.20;99.90;;;;;;4992857;28;20030;-87
2023/04/07 08:55:14;;;;;;;5.95;3.45;;;11.20;99.90;;;;;;4996615;28;20037;-93
2023/04/07 08:57:45;;;;;;;8.88;3.15;;;11.20;99.90;;;;;;4996468;28;20023;-92
2023/04/07 09:00:11;;;;;;;7.35;4.00;;;11.20;99.90;;;;;;4995564;28;20030;-86
2023/04/07 09:02:39;;;;;;;7.50;2.88;;;11.40;99.90;;;;;;4996193;28;20022;-88
2023/04/07 09:05:07;;;;;;;3.92;2.67;;;11.40;99.90;;;;;;4996017;28;20030;-84
2023/04/07 09:07:37;;;;;;;6.55;3.40;;;11.60;99.90;;;;;;4996254;28;20037;-87
2023/04/07 09:10:04;;;;;;;4.75;3.00;;;11.70;99.90;;;;;;4995170;28;20027;-88
2023/04/07 09:12:31;;;;;;;5.13;2.85;;;12.00;99.90;;;;;;4987325;28;20066;-86
2023/04/07 09:14:57;;;;;;;5.22;3.13;;;12.20;99.90;;;;;;4996289;28;20065;-88
2023/04/07 09:17:25;;;;;;;6.45;3.20;;;12.40;99.90;;;;;;5011337;28;20475;-85
2023/04/07 09:19:52;;;;;;;5.68;2.53;;;12.50;99.90;;;;;;4995663;28;20030;-85
2023/04/07 09:22:44;;;;;;;7.10;3.00;;;12.50;99.90;;;;;;4993520;28;20151;-90
2023/04/07 09:25:16;;;;;;;;;;;12.50;99.90;;;;;;4990234;28;20558;-91
2023/04/07 09:28:00;;;;;;;6.38;3.05;;;12.60;99.90;;;;;;4991387;28;19952;-90
2023/04/07 09:30:27;;;;;;;6.63;2.95;;;12.60;99.90;;;;;;4986863;28;20320;-90
2023/04/07 09:32:53;;;;;;;6.80;3.65;;;12.70;99.90;;;;;;4995071;28;20097;-88
2023/04/07 09:35:19;;;;;;;5.60;2.63;;;12.60;99.90;;;;;;4994651;28;20030;-84
2023/04/07 09:38:00;;;;;;;4.25;2.95;;;12.60;99.90;;;;;;4993385;28;20054;-83
2023/04/07 09:40:26;;;;;;;6.53;3.17;;;12.40;99.90;;;;;;4993534;28;20027;-83
2023/04/07 09:42:52;;;;;;;4.35;2.95;;;12.30;99.90;;;;;;4988781;28;20051;-83
2023/04/07 09:45:38;;;;;;;5.78;3.15;;;12.20;99.90;;;;;;4986428;28;20069;-83
2023/04/07 09:48:20;;;;;;;6.40;2.53;;;12.10;99.90;;;;;;5000142;28;20034;-83
2023/04/07 09:50:50;;;;;;;6.10;2.45;;;12.10;99.90;;;;;;4991907;28;20467;-83
2023/04/07 09:53:17;;;;;;;4.60;2.20;;;12.00;99.90;;;;;;4994332;28;20038;-83
2023/04/07 09:55:44;;;;;;;5.38;2.45;;;12.00;99.90;;;;;;4994497;28;20387;-82
2023/04/07 09:58:13;;;;;;;4.10;2.80;;;12.00;99.90;;;;;;4994526;28;20058;-83
2023/04/07 10:00:40;;;;;;;4.35;2.75;;;11.90;99.90;;;;;;4995450;28;20037;-81
2023/04/07 10:03:07;;;;;;;9.40;3.05;;;12.00;99.90;;;;;;4994283;28;20030;-83
2023/04/07 10:05:35;;;;;;;4.53;2.55;;;12.00;99.90;;;;;;4994950;28;20038;-85
2023/04/07 10:08:01;;;;;;;4.68;2.80;;;12.00;99.90;;;;;;4995501;28;20092;-85
2023/04/07 10:10:29;;;;;;;5.53;2.80;;;12.00;99.90;;;;;;4994337;28;20069;-85
2023/04/07 10:12:56;;;;;;;4.88;2.55;;;12.00;99.90;;;;;;4995330;28;20037;-81
2023/04/07 10:15:22;;;;;;;4.07;2.05;;;12.00;99.90;;;;;;4993658;28;20487;-83
2023/04/07 10:17:48;;;;;;;4.43;2.40;;;12.00;99.90;;;;;;4994452;28;20035;-82
2023/04/07 10:20:17;;;;;;;4.65;2.70;;;12.00;99.90;;;;;;4993894;28;20423;-83
2023/04/07 10:22:45;;;;;;;5.15;2.20;;;12.00;99.90;;;;;;4995338;28;20034;-82
2023/04/07 10:25:15;;;;;;;4.10;2.85;;;12.00;99.90;;;;;;5000370;28;20030;-81
2023/04/07 10:27:51;;;;;;;7.82;2.58;;;12.00;99.90;;;;;;5004741;28;20084;-85
2023/04/07 10:30:29;;;;;;;6.53;2.53;;;12.20;99.90;;;;;;4993691;28;20471;-86
2023/04/07 10:32:55;;;;;;;5.32;2.42;;;12.30;99.90;;;;;;4995337;28;20090;-87
2023/04/07 10:35:22;;;;;;;6.20;2.60;;;12.30;99.90;;;;;;4993619;28;20058;-85
2023/04/07 10:38:06;;;;;;;6.47;2.55;;;12.40;99.90;;;;;;4993981;28;20026;-82
2023/04/07 10:40:32;;;;;;;8.23;2.70;;;12.50;99.90;;;;;;4994536;28;20042;-84
2023/04/07 10:42:58;;;;;;;5.53;2.97;;;12.40;99.90;;;;;;4994537;28;20141;-84
2023/04/07 10:45:48;;;;;;;7.18;3.35;;;12.50;99.90;;;;;;4994440;28;20093;-85
2023/04/07 10:48:15;;;;;;;5.35;2.67;;;12.60;99.90;;;;;;4993680;28;20598;-85
2023/04/07 10:50:41;;;;;;;4.85;3.08;;;12.60;99.90;;;;;;4995217;28;20022;-84
2023/04/07 10:53:09;;;;;;;6.10;2.10;;;12.70;99.90;;;;;;4994835;28;20041;-81
2023/04/07 10:55:39;;;;;;;3.90;1.40;;;12.70;99.90;;;;;;4992768;28;20034;-84
2023/04/07 10:58:24;;;;;;;4.10;1.20;;;12.90;99.90;;;;;;4993761;28;20026;-85
2023/04/07 11:01:11;;;;;;;3.50;1.00;;;12.90;99.90;;;;;;4993149;28;20022;-84
2023/04/07 11:03:54;;;;;;;2.42;1.40;;;13.10;99.90;;;;;;4992765;28;20031;-86
2023/04/07 11:06:20;;;;;;;2.55;1.13;;;13.10;99.90;;;;;;4993275;28;20033;-84
2023/04/07 11:08:47;;;;;;;3.10;0.90;;;13.20;99.90;;;;;;4993763;28;20395;-83
2023/04/07 11:11:15;;;;;;;2.40;0.90;;;13.20;99.90;;;;;;4993449;28;20030;-83
2023/04/07 11:13:45;;;;;;;6.90;2.47;;;13.10;99.90;;;;;;4988130;28;20034;-82
2023/04/07 11:16:12;;;;;;;6.40;2.80;;;13.10;99.90;;;;;;4994604;28;20022;-87
2023/04/07 11:18:38;;;;;;;4.82;1.23;;;13.00;99.90;;;;;;4999547;28;20030;-84
2023/04/07 11:21:05;;;;;;;4.38;1.20;;;13.00;99.90;;;;;;4996236;28;20329;-83
2023/04/07 11:23:42;;;;;;;3.25;1.20;;;13.00;99.90;;;;;;5013241;28;20049;-85
2023/04/07 11:26:10;;;;;;;3.72;1.70;;;13.20;99.90;;;;;;5013188;28;20034;-83
2023/04/07 11:28:46;;;;;;;4.20;1.90;;;13.40;99.90;;;;;;4977022;28;20448;-89
2023/04/07 11:31:20;;;;;;;3.15;1.10;;;13.50;99.90;;;;;;4994657;28;20092;-92
2023/04/07 11:33:54;;;;;;;3.58;1.70;;;13.80;99.90;;;;;;4994345;28;20030;-89
2023/04/07 11:36:46;;;;;;;4.85;2.10;;;13.90;99.90;;;;;;4992671;28;20030;-89
2023/04/07 11:39:21;;;;;;;2.42;1.42;;;14.10;99.90;;;;;;4989846;28;20038;-85
2023/04/07 11:41:48;;;;;;;5.95;1.80;;;14.10;99.90;;;;;;4992208;28;20040;-84
2023/04/07 11:44:14;;;;;;;4.40;1.70;;;14.10;99.90;;;;;;4991134;28;20113;-83
2023/04/07 11:46:59;;;;;;;3.03;1.33;;;14.30;99.90;;;;;;4993095;28;20122;-85
2023/04/07 11:49:27;;;;;;;6.70;1.83;;;14.30;99.90;;;;;;4993173;28;20026;-83
2023/04/07 11:52:03;;;;;;;6.35;2.28;;;14.40;99.90;;;;;;4994387;28;20069;-84
2023/04/07 11:54:42;;;;;;;4.93;2.60;;;14.50;99.90;;;;;;4993100;28;20038;-83
2023/04/07 11:57:11;;;;;;;9.38;5.07;;;14.40;99.40;;;;;;4993532;28;20072;-84
2023/04/07 11:59:37;;;;;;;3.42;1.77;;;14.30;99.10;;;;;;4991922;28;20061;-85
2023/04/07 12:02:03;;;;;;;3.13;1.60;;;14.10;98.80;;;;;;4993410;28;20053;-89
2023/04/07 12:04:29;;;;;;;5.80;1.48;;;14.10;99.20;;;;;;4992857;28;20030;-88
2023/04/07 12:07:09;;;;;;;5.03;1.90;;;14.20;98.70;;;;;;4993201;28;20035;-83
2023/04/07 12:09:35;;;;;;;2.75;0.90;;;14.10;99.90;;;;;;4993570;28;20022;-83
2023/04/07 12:12:02;;;;;;;2.83;0.98;;;14.00;99.90;;;;;;4993612;28;20376;-83
2023/04/07 12:14:28;;;;;;;2.03;1.05;;;13.70;99.90;;;;;;4992832;28;20027;-84
2023/04/07 12:16:56;;;;;;;2.10;1.00;;;13.60;99.90;;;;;;4992871;28;20578;-87
2023/04/07 12:19:22;;;;;;;1.20;0.95;;;13.50;99.90;;;;;;5000212;28;20022;-87
2023/04/07 12:21:48;;;;;;;3.75;0.90;;;13.50;99.90;;;;;;5005643;28;20026;-89
2023/04/07 12:24:14;;;;;;;3.30;1.27;;;13.40;99.90;;;;;;5012458;28;20509;-83
2023/04/07 12:26:40;;;;;;;2.95;0.88;;;13.30;99.90;;;;;;5015307;28;20105;-83
2023/04/07 12:29:05;;;;;;;2.38;0.90;;;13.10;99.90;;;;;;5000875;28;20542;-83
2023/04/07 12:31:31;;;;;;;2.83;1.00;;;13.00;99.90;;;;;;4988700;28;20026;-85
2023/04/07 12:33:58;;;;;;;2.88;0.80;;;12.80;99.90;;;;;;4997449;28;20041;-88
2023/04/07 12:36:26;;;;;;;2.63;1.17;;;12.70;99.90;;;;;;4999500;28;20033;-90
2023/04/07 12:38:53;;;;;;;2.70;1.40;;;12.60;99.90;;;;;;4996540;28;20026;-84
2023/04/07 12:41:19;;;;;;;3.47;1.42;;;12.50;99.90;;;;;;4995540;28;20376;-84
2023/04/07 12:43:45;;;;;;;4.40;1.77;;;12.40;99.90;;;;;;4995618;28;20054;-83
2023/04/07 12:46:10;;;;;;;4.43;1.50;;;12.30;99.90;;;;;;4996779;28;20076;-83
2023/04/07 12:48:36;;;;;;;3.53;1.50;;;12.20;99.90;;;;;;4995524;28;20460;-83
2023/04/07 12:51:01;;;;;;;3.03;1.30;;;12.10;99.90;;;;;;4996808;28;20037;-83
2023/04/07 12:53:27;;;;;;;3.95;1.73;;;12.20;99.90;;;;;;4996296;28;20100;-82
2023/04/07 12:55:53;;;;;;;3.55;1.45;;;12.30;99.90;;;;;;4994952;28;20395;-83